sensor_id;sensor_type;location;lat;lon;timestamp;temperature;humidity
12833;DHT22;6483;51.310;4.462;2024-02-21T00:00:35;9.70;99.90
12833;DHT22;6483;51.310;4.462;2024-02-21T00:03:04;9.70;99.90
12833;DHT22;6483;51.310;4.462;2024-02-21T00:05:31;9.70;99.90
12833;DHT22;6483;51.310;4.462;2024-02-21T00:07:59;9.70;99.90
12833;DHT22;6483;51.310;4.462;2024-02-21T00:10:25;9.60;99.90
12833;DHT22;6483;51.310;4.462;2024-02-21T00:12:54;9.60;99.90
12833;DHT22;6483;51.310;4.462;2024-02-21T00:15:23;9.60;99.90
12833;DHT22;6483;51.310;4.462;2024-02-21T00:17:48;9.50;99.90
12833;DHT22;6483;51.310;4.462;2024-02-21T00:20:14;9.50;99.90
12833;DHT22;6483;51.310;4.462;2024-02-21T00:22:40;9.50;99.90
12833;DHT22;6483;51.310;4.462;2024-02-21T00:25:07;9.50;99.90
12833;DHT22;6483;51.310;4.462;2024-02-21T00:27:34;9.50;99.90
12833;DHT22;6483;51.310;4.462;2024-02-21T00:30:00;9.50;99.90
12833;DHT22;6483;51.310;4.462;2024-02-21T00:32:26;9.60;99.90
12833;DHT22;6483;51.310;4.462;2024-02-21T00:35:34;9.60;99.90
12833;DHT22;6483;51.310;4.462;2024-02-21T00:37:44;9.60;99.90
12833;DHT22;6483;51.310;4.462;2024-02-21T00:40:10;9.60;99.90
12833;DHT22;6483;51.310;4.462;2024-02-21T00:42:36;9.60;99.90
12833;DHT22;6483;51.310;4.462;2024-02-21T00:45:02;9.50;99.90
12833;DHT22;6483;51.310;4.462;2024-02-21T00:47:28;9.50;99.90
12833;DHT22;6483;51.310;4.462;2024-02-21T00:49:53;9.50;99.90
12833;DHT22;6483;51.310;4.462;2024-02-21T00:52:20;9.50;99.90
12833;DHT22;6483;51.310;4.462;2024-02-21T00:54:46;9.40;99.90
12833;DHT22;6483;51.310;4.462;2024-02-21T00:57:14;9.40;99.90
12833;DHT22;6483;51.310;4.462;2024-02-21T00:59:40;9.50;99.90
12833;DHT22;6483;51.310;4.462;2024-02-21T01:04:34;9.50;99.90
12833;DHT22;6483;51.310;4.462;2024-02-21T01:07:03;9.50;99.90
12833;DHT22;6483;51.310;4.462;2024-02-21T01:09:29;9.50;99.90
12833;DHT22;6483;51.310;4.462;2024-02-21T01:11:55;9.60;99.90
12833;DHT22;6483;51.310;4.462;2024-02-21T01:14:21;9.60;99.90
12833;DHT22;6483;51.310;4.462;2024-02-21T01:16:46;9.60;99.90
12833;DHT22;6483;51.310;4.462;2024-02-21T01:19:12;9.50;99.90
12833;DHT22;6483;51.310;4.462;2024-02-21T01:21:38;9.50;99.90
12833;DHT22;6483;51.310;4.462;2024-02-21T01:24:04;9.50;99.90
12833;DHT22;6483;51.310;4.462;2024-02-21T01:26:30;9.50;99.90
12833;DHT22;6483;51.310;4.462;2024-02-21T01:28:55;9.50;99.90
12833;DHT22;6483;51.310;4.462;2024-02-21T01:31:21;9.50;99.90
12833;DHT22;6483;51.310;4.462;2024-02-21T01:33:50;9.50;99.90
12833;DHT22;6483;51.310;4.462;2024-02-21T01:36:15;9.50;99.90
12833;DHT22;6483;51.310;4.462;2024-02-21T01:38:41;9.50;99.90
12833;DHT22;6483;51.310;4.462;2024-02-21T01:41:07;9.40;99.90
12833;DHT22;6483;51.310;4.462;2024-02-21T01:43:33;9.40;99.90
12833;DHT22;6483;51.310;4.462;2024-02-21T01:46:02;9.40;99.90
12833;DHT22;6483;51.310;4.462;2024-02-21T01:51:01;9.40;99.90
12833;DHT22;6483;51.310;4.462;2024-02-21T01:53:35;9.40;99.90
12833;DHT22;6483;51.310;4.462;2024-02-21T01:56:02;9.40;99.90
12833;DHT22;6483;51.310;4.462;2024-02-21T01:58:31;9.40;99.90
12833;DHT22;6483;51.310;4.462;2024-02-21T02:00:58;9.30;99.90
12833;DHT22;6483;51.310;4.462;2024-02-21T02:03:24;9.30;99.90
12833;DHT22;6483;51.310;4.462;2024-02-21T02:05:51;9.30;99.90
12833;DHT22;6483;51.310;4.462;2024-02-21T02:08:19;9.30;99.90
12833;DHT22;6483;51.310;4.462;2024-02-21T02:10:47;9.20;99.90
12833;DHT22;6483;51.310;4.462;2024-02-21T02:13:14;9.30;99.90
12833;DHT22;6483;51.310;4.462;2024-02-21T02:15:47;9.30;99.90
12833;DHT22;6483;51.310;4.462;2024-02-21T02:18:14;9.30;99.90
12833;DHT22;6483;51.310;4.462;2024-02-21T02:20:41;9.30;99.90
12833;DHT22;6483;51.310;4.462;2024-02-21T02:23:16;9.30;99.90
12833;DHT22;6483;51.310;4.462;2024-02-21T02:25:42;9.30;99.90
12833;DHT22;6483;51.310;4.462;2024-02-21T02:28:09;9.20;99.90
12833;DHT22;6483;51.310;4.462;2024-02-21T02:30:39;9.30;99.90
12833;DHT22;6483;51.310;4.462;2024-02-21T02:33:05;9.20;99.90
12833;DHT22;6483;51.310;4.462;2024-02-21T02:35:32;9.20;99.90
12833;DHT22;6483;51.310;4.462;2024-02-21T02:37:59;9.20;99.90
12833;DHT22;6483;51.310;4.462;2024-02-21T02:40:26;9.20;99.90
12833;DHT22;6483;51.310;4.462;2024-02-21T02:42:53;9.20;99.90
12833;DHT22;6483;51.310;4.462;2024-02-21T02:45:21;9.20;99.90
12833;DHT22;6483;51.310;4.462;2024-02-21T02:47:55;9.10;99.90
12833;DHT22;6483;51.310;4.462;2024-02-21T02:50:26;9.10;99.90
12833;DHT22;6483;51.310;4.462;2024-02-21T02:52:53;9.10;99.90
12833;DHT22;6483;51.310;4.462;2024-02-21T02:55:19;9.10;99.90
12833;DHT22;6483;51.310;4.462;2024-02-21T02:57:45;9.10;99.90
12833;DHT22;6483;51.310;4.462;2024-02-21T03:00:12;9.10;99.90
12833;DHT22;6483;51.310;4.462;2024-02-21T03:02:41;9.10;99.90
12833;DHT22;6483;51.310;4.462;2024-02-21T03:05:32;9.20;99.90
12833;DHT22;6483;51.310;4.462;2024-02-21T03:07:58;9.10;99.90
12833;DHT22;6483;51.310;4.462;2024-02-21T03:10:27;9.10;99.90
12833;DHT22;6483;51.310;4.462;2024-02-21T03:12:53;9.10;99.90
12833;DHT22;6483;51.310;4.462;2024-02-21T03:15:19;9.10;99.90
12833;DHT22;6483;51.310;4.462;2024-02-21T03:17:45;9.10;99.90
12833;DHT22;6483;51.310;4.462;2024-02-21T03:20:11;9.10;99.90
12833;DHT22;6483;51.310;4.462;2024-02-21T03:22:37;9.10;99.90
12833;DHT22;6483;51.310;4.462;2024-02-21T03:25:04;9.10;99.90
12833;DHT22;6483;51.310;4.462;2024-02-21T03:27:30;9.10;99.90
12833;DHT22;6483;51.310;4.462;2024-02-21T03:30:02;9.10;99.90
12833;DHT22;6483;51.310;4.462;2024-02-21T03:32:33;9.10;99.90
12833;DHT22;6483;51.310;4.462;2024-02-21T03:35:02;9.20;99.90
12833;DHT22;6483;51.310;4.462;2024-02-21T03:37:31;9.20;99.90
12833;DHT22;6483;51.310;4.462;2024-02-21T03:39:57;9.10;99.90
12833;DHT22;6483;51.310;4.462;2024-02-21T03:44:52;9.10;99.90
12833;DHT22;6483;51.310;4.462;2024-02-21T03:47:20;9.00;99.90
12833;DHT22;6483;51.310;4.462;2024-02-21T03:49:47;9.10;99.90
12833;DHT22;6483;51.310;4.462;2024-02-21T03:54:39;9.00;99.90
12833;DHT22;6483;51.310;4.462;2024-02-21T03:57:05;9.00;99.90
12833;DHT22;6483;51.310;4.462;2024-02-21T03:59:32;9.00;99.90
12833;DHT22;6483;51.310;4.462;2024-02-21T04:01:58;9.00;99.90
12833;DHT22;6483;51.310;4.462;2024-02-21T04:04:24;9.00;99.90
12833;DHT22;6483;51.310;4.462;2024-02-21T04:06:50;9.00;99.90
12833;DHT22;6483;51.310;4.462;2024-02-21T04:11:42;9.00;99.90
12833;DHT22;6483;51.310;4.462;2024-02-21T04:14:12;9.00;99.90
12833;DHT22;6483;51.310;4.462;2024-02-21T04:16:41;9.00;99.90
12833;DHT22;6483;51.310;4.462;2024-02-21T04:19:11;9.00;99.90
12833;DHT22;6483;51.310;4.462;2024-02-21T04:21:42;9.00;99.90
12833;DHT22;6483;51.310;4.462;2024-02-21T04:24:11;9.00;99.90
12833;DHT22;6483;51.310;4.462;2024-02-21T04:26:39;9.10;99.90
12833;DHT22;6483;51.310;4.462;2024-02-21T04:29:06;9.10;99.90
12833;DHT22;6483;51.310;4.462;2024-02-21T04:31:34;9.10;99.90
12833;DHT22;6483;51.310;4.462;2024-02-21T04:34:06;9.10;99.90
12833;DHT22;6483;51.310;4.462;2024-02-21T04:36:32;9.20;99.90
12833;DHT22;6483;51.310;4.462;2024-02-21T04:39:01;9.20;99.90
12833;DHT22;6483;51.310;4.462;2024-02-21T04:41:33;9.20;99.90
12833;DHT22;6483;51.310;4.462;2024-02-21T04:43:59;9.20;99.90
12833;DHT22;6483;51.310;4.462;2024-02-21T04:46:25;9.10;99.90
12833;DHT22;6483;51.310;4.462;2024-02-21T04:48:51;9.20;99.90
12833;DHT22;6483;51.310;4.462;2024-02-21T04:51:17;9.20;99.90
12833;DHT22;6483;51.310;4.462;2024-02-21T04:53:43;9.10;99.90
12833;DHT22;6483;51.310;4.462;2024-02-21T04:56:14;9.10;99.90
12833;DHT22;6483;51.310;4.462;2024-02-21T04:58:40;9.20;99.90
12833;DHT22;6483;51.310;4.462;2024-02-21T05:01:06;9.20;99.90
12833;DHT22;6483;51.310;4.462;2024-02-21T05:05:59;9.20;99.90
12833;DHT22;6483;51.310;4.462;2024-02-21T05:08:26;9.20;99.90
12833;DHT22;6483;51.310;4.462;2024-02-21T05:10:52;9.20;99.90
12833;DHT22;6483;51.310;4.462;2024-02-21T05:13:20;9.20;99.90
12833;DHT22;6483;51.310;4.462;2024-02-21T05:15:45;9.20;99.90
12833;DHT22;6483;51.310;4.462;2024-02-21T05:18:11;9.20;99.90
12833;DHT22;6483;51.310;4.462;2024-02-21T05:20:39;9.20;99.90
12833;DHT22;6483;51.310;4.462;2024-02-21T05:23:08;9.20;99.90
12833;DHT22;6483;51.310;4.462;2024-02-21T05:25:34;9.20;99.90
12833;DHT22;6483;51.310;4.462;2024-02-21T05:27:59;9.20;99.90
12833;DHT22;6483;51.310;4.462;2024-02-21T05:30:29;9.20;99.90
12833;DHT22;6483;51.310;4.462;2024-02-21T05:32:55;9.20;99.90
12833;DHT22;6483;51.310;4.462;2024-02-21T05:35:28;9.20;99.90
12833;DHT22;6483;51.310;4.462;2024-02-21T05:37:57;9.20;99.90
12833;DHT22;6483;51.310;4.462;2024-02-21T05:40:23;9.20;99.90
12833;DHT22;6483;51.310;4.462;2024-02-21T05:42:49;9.10;99.90
12833;DHT22;6483;51.310;4.462;2024-02-21T05:45:16;9.10;99.90
12833;DHT22;6483;51.310;4.462;2024-02-21T05:50:09;9.00;99.90
12833;DHT22;6483;51.310;4.462;2024-02-21T05:52:35;9.00;99.90
12833;DHT22;6483;51.310;4.462;2024-02-21T05:55:00;8.90;99.90
12833;DHT22;6483;51.310;4.462;2024-02-21T05:57:26;8.90;99.90
12833;DHT22;6483;51.310;4.462;2024-02-21T05:59:52;8.90;99.90
12833;DHT22;6483;51.310;4.462;2024-02-21T06:02:18;8.90;99.90
12833;DHT22;6483;51.310;4.462;2024-02-21T06:04:43;8.90;99.90
12833;DHT22;6483;51.310;4.462;2024-02-21T06:07:09;8.90;99.90
12833;DHT22;6483;51.310;4.462;2024-02-21T06:09:35;8.90;99.90
12833;DHT22;6483;51.310;4.462;2024-02-21T06:12:01;8.90;99.90
12833;DHT22;6483;51.310;4.462;2024-02-21T06:14:27;8.90;99.90
12833;DHT22;6483;51.310;4.462;2024-02-21T06:16:56;8.90;99.90
12833;DHT22;6483;51.310;4.462;2024-02-21T06:21:51;8.90;99.90
12833;DHT22;6483;51.310;4.462;2024-02-21T06:24:19;8.80;99.90
12833;DHT22;6483;51.310;4.462;2024-02-21T06:26:48;8.80;99.90
12833;DHT22;6483;51.310;4.462;2024-02-21T06:29:14;8.80;99.90
12833;DHT22;6483;51.310;4.462;2024-02-21T06:31:43;8.70;99.90
12833;DHT22;6483;51.310;4.462;2024-02-21T06:34:09;8.70;99.90
12833;DHT22;6483;51.310;4.462;2024-02-21T06:36:35;8.80;99.90
12833;DHT22;6483;51.310;4.462;2024-02-21T06:39:00;8.70;99.90
12833;DHT22;6483;51.310;4.462;2024-02-21T06:41:27;8.70;99.90
12833;DHT22;6483;51.310;4.462;2024-02-21T06:43:53;8.70;99.90
12833;DHT22;6483;51.310;4.462;2024-02-21T06:46:37;8.70;99.90
12833;DHT22;6483;51.310;4.462;2024-02-21T06:49:04;8.70;99.90
12833;DHT22;6483;51.310;4.462;2024-02-21T06:51:30;8.70;99.90
12833;DHT22;6483;51.310;4.462;2024-02-21T06:53:56;8.70;99.90
12833;DHT22;6483;51.310;4.462;2024-02-21T06:56:24;8.70;99.90
12833;DHT22;6483;51.310;4.462;2024-02-21T06:59:12;8.60;99.90
12833;DHT22;6483;51.310;4.462;2024-02-21T07:01:53;8.60;99.90
12833;DHT22;6483;51.310;4.462;2024-02-21T07:04:23;8.70;99.90
12833;DHT22;6483;51.310;4.462;2024-02-21T07:06:51;8.60;99.90
12833;DHT22;6483;51.310;4.462;2024-02-21T07:09:17;8.60;99.90
12833;DHT22;6483;51.310;4.462;2024-02-21T07:11:43;8.70;99.90
12833;DHT22;6483;51.310;4.462;2024-02-21T07:14:09;8.70;99.90
12833;DHT22;6483;51.310;4.462;2024-02-21T07:16:36;8.70;99.90
12833;DHT22;6483;51.310;4.462;2024-02-21T07:19:03;8.70;99.90
12833;DHT22;6483;51.310;4.462;2024-02-21T07:21:37;8.70;99.90
12833;DHT22;6483;51.310;4.462;2024-02-21T07:24:05;8.80;99.90
12833;DHT22;6483;51.310;4.462;2024-02-21T07:26:34;8.80;99.90
12833;DHT22;6483;51.310;4.462;2024-02-21T07:29:00;8.90;99.90
12833;DHT22;6483;51.310;4.462;2024-02-21T07:31:29;9.00;99.90
12833;DHT22;6483;51.310;4.462;2024-02-21T07:33:55;9.00;99.90
12833;DHT22;6483;51.310;4.462;2024-02-21T07:36:29;9.00;99.90
12833;DHT22;6483;51.310;4.462;2024-02-21T07:39:01;9.20;99.90
12833;DHT22;6483;51.310;4.462;2024-02-21T07:41:28;9.10;99.90
12833;DHT22;6483;51.310;4.462;2024-02-21T07:44:01;9.20;99.90
12833;DHT22;6483;51.310;4.462;2024-02-21T07:46:28;9.20;99.90
12833;DHT22;6483;51.310;4.462;2024-02-21T07:48:57;9.20;99.90
12833;DHT22;6483;51.310;4.462;2024-02-21T07:51:23;9.30;99.90
12833;DHT22;6483;51.310;4.462;2024-02-21T07:53:55;9.20;99.90
12833;DHT22;6483;51.310;4.462;2024-02-21T07:56:27;9.20;99.90
12833;DHT22;6483;51.310;4.462;2024-02-21T07:58:54;9.30;99.90
12833;DHT22;6483;51.310;4.462;2024-02-21T08:01:19;9.30;99.90
12833;DHT22;6483;51.310;4.462;2024-02-21T08:03:48;9.30;99.90
12833;DHT22;6483;51.310;4.462;2024-02-21T08:06:14;9.40;99.90
12833;DHT22;6483;51.310;4.462;2024-02-21T08:08:43;9.40;99.90
12833;DHT22;6483;51.310;4.462;2024-02-21T08:11:11;9.40;99.90
12833;DHT22;6483;51.310;4.462;2024-02-21T08:13:37;9.40;99.90
12833;DHT22;6483;51.310;4.462;2024-02-21T08:16:12;9.50;99.90
12833;DHT22;6483;51.310;4.462;2024-02-21T08:18:41;9.50;99.90
12833;DHT22;6483;51.310;4.462;2024-02-21T08:21:09;10.10;99.90
12833;DHT22;6483;51.310;4.462;2024-02-21T08:23:35;9.50;99.90
12833;DHT22;6483;51.310;4.462;2024-02-21T08:26:06;9.60;99.90
12833;DHT22;6483;51.310;4.462;2024-02-21T08:28:32;9.60;99.90
12833;DHT22;6483;51.310;4.462;2024-02-21T08:31:01;8.80;99.90
12833;DHT22;6483;51.310;4.462;2024-02-21T08:33:27;9.60;99.90
12833;DHT22;6483;51.310;4.462;2024-02-21T08:35:57;9.70;99.90
12833;DHT22;6483;51.310;4.462;2024-02-21T08:38:29;9.70;99.90
12833;DHT22;6483;51.310;4.462;2024-02-21T08:40:55;9.70;99.90
12833;DHT22;6483;51.310;4.462;2024-02-21T08:43:20;9.80;99.90
12833;DHT22;6483;51.310;4.462;2024-02-21T08:45:46;9.80;99.90
12833;DHT22;6483;51.310;4.462;2024-02-21T08:48:12;9.70;99.90
12833;DHT22;6483;51.310;4.462;2024-02-21T08:50:40;9.70;99.90
12833;DHT22;6483;51.310;4.462;2024-02-21T08:53:06;9.70;99.90
12833;DHT22;6483;51.310;4.462;2024-02-21T08:55:32;9.70;99.90
12833;DHT22;6483;51.310;4.462;2024-02-21T08:57:58;9.80;99.90
12833;DHT22;6483;51.310;4.462;2024-02-21T09:00:25;9.70;99.90
12833;DHT22;6483;51.310;4.462;2024-02-21T09:02:54;9.70;99.90
12833;DHT22;6483;51.310;4.462;2024-02-21T09:05:21;9.70;99.90
12833;DHT22;6483;51.310;4.462;2024-02-21T09:07:47;9.60;99.90
12833;DHT22;6483;51.310;4.462;2024-02-21T09:10:16;9.60;99.90
12833;DHT22;6483;51.310;4.462;2024-02-21T09:12:44;9.60;99.90
12833;DHT22;6483;51.310;4.462;2024-02-21T09:15:10;9.60;99.90
12833;DHT22;6483;51.310;4.462;2024-02-21T09:18:00;9.70;99.90
12833;DHT22;6483;51.310;4.462;2024-02-21T09:20:31;9.80;99.90
12833;DHT22;6483;51.310;4.462;2024-02-21T09:22:57;9.80;99.90
12833;DHT22;6483;51.310;4.462;2024-02-21T09:25:25;9.80;99.90
12833;DHT22;6483;51.310;4.462;2024-02-21T09:27:54;9.80;99.90
12833;DHT22;6483;51.310;4.462;2024-02-21T09:30:27;9.90;99.90
12833;DHT22;6483;51.310;4.462;2024-02-21T09:32:55;10.00;99.90
12833;DHT22;6483;51.310;4.462;2024-02-21T09:35:24;10.00;99.90
12833;DHT22;6483;51.310;4.462;2024-02-21T09:37:52;10.10;99.90
12833;DHT22;6483;51.310;4.462;2024-02-21T09:40:19;10.10;99.90
12833;DHT22;6483;51.310;4.462;2024-02-21T09:43:05;10.10;99.90
12833;DHT22;6483;51.310;4.462;2024-02-21T09:45:34;10.10;99.90
12833;DHT22;6483;51.310;4.462;2024-02-21T09:50:33;10.30;99.90
12833;DHT22;6483;51.310;4.462;2024-02-21T09:53:04;10.30;99.90
12833;DHT22;6483;51.310;4.462;2024-02-21T09:55:33;10.30;99.90
12833;DHT22;6483;51.310;4.462;2024-02-21T09:58:01;10.40;99.90
12833;DHT22;6483;51.310;4.462;2024-02-21T10:00:28;10.30;99.90
12833;DHT22;6483;51.310;4.462;2024-02-21T10:02:55;10.40;99.90
12833;DHT22;6483;51.310;4.462;2024-02-21T10:05:21;10.40;99.90
12833;DHT22;6483;51.310;4.462;2024-02-21T10:07:48;10.50;99.90
12833;DHT22;6483;51.310;4.462;2024-02-21T10:10:15;10.50;99.90
12833;DHT22;6483;51.310;4.462;2024-02-21T10:12:52;10.40;99.90
12833;DHT22;6483;51.310;4.462;2024-02-21T10:15:24;10.40;99.90
12833;DHT22;6483;51.310;4.462;2024-02-21T10:17:58;10.30;99.90
12833;DHT22;6483;51.310;4.462;2024-02-21T10:20:24;10.30;99.90
12833;DHT22;6483;51.310;4.462;2024-02-21T10:23:03;10.40;99.90
12833;DHT22;6483;51.310;4.462;2024-02-21T10:25:34;10.50;99.90
12833;DHT22;6483;51.310;4.462;2024-02-21T10:27:59;10.40;99.90
12833;DHT22;6483;51.310;4.462;2024-02-21T10:30:25;10.40;99.90
12833;DHT22;6483;51.310;4.462;2024-02-21T10:32:52;10.40;99.90
12833;DHT22;6483;51.310;4.462;2024-02-21T10:35:29;10.40;99.90
12833;DHT22;6483;51.310;4.462;2024-02-21T10:37:56;10.80;99.90
12833;DHT22;6483;51.310;4.462;2024-02-21T10:40:31;10.80;99.90
12833;DHT22;6483;51.310;4.462;2024-02-21T10:42:58;10.70;99.90
12833;DHT22;6483;51.310;4.462;2024-02-21T10:45:34;10.80;99.90
12833;DHT22;6483;51.310;4.462;2024-02-21T10:48:12;10.70;99.90
12833;DHT22;6483;51.310;4.462;2024-02-21T10:51:03;10.80;99.90
12833;DHT22;6483;51.310;4.462;2024-02-21T10:56:30;10.70;99.90
12833;DHT22;6483;51.310;4.462;2024-02-21T10:59:01;10.70;99.90
12833;DHT22;6483;51.310;4.462;2024-02-21T11:01:28;10.70;99.90
12833;DHT22;6483;51.310;4.462;2024-02-21T11:03:56;10.80;99.90
12833;DHT22;6483;51.310;4.462;2024-02-21T11:06:23;10.90;99.90
12833;DHT22;6483;51.310;4.462;2024-02-21T11:09:01;10.90;99.90
12833;DHT22;6483;51.310;4.462;2024-02-21T11:11:28;10.80;99.90
12833;DHT22;6483;51.310;4.462;2024-02-21T11:14:05;10.60;99.90
12833;DHT22;6483;51.310;4.462;2024-02-21T11:16:39;10.50;99.90
12833;DHT22;6483;51.310;4.462;2024-02-21T11:19:25;10.40;99.90
12833;DHT22;6483;51.310;4.462;2024-02-21T11:21:52;10.50;99.90
12833;DHT22;6483;51.310;4.462;2024-02-21T11:24:29;10.60;99.90
12833;DHT22;6483;51.310;4.462;2024-02-21T11:26:56;10.60;99.90
12833;DHT22;6483;51.310;4.462;2024-02-21T11:29:26;10.60;99.90
12833;DHT22;6483;51.310;4.462;2024-02-21T11:31:52;10.70;99.90
12833;DHT22;6483;51.310;4.462;2024-02-21T11:34:19;10.60;99.90
12833;DHT22;6483;51.310;4.462;2024-02-21T11:36:49;10.60;99.90
12833;DHT22;6483;51.310;4.462;2024-02-21T11:39:20;10.60;99.90
12833;DHT22;6483;51.310;4.462;2024-02-21T11:41:58;10.70;99.90
12833;DHT22;6483;51.310;4.462;2024-02-21T11:44:24;10.60;99.90
12833;DHT22;6483;51.310;4.462;2024-02-21T11:46:50;10.90;99.90
12833;DHT22;6483;51.310;4.462;2024-02-21T11:49:16;11.00;99.90
12833;DHT22;6483;51.310;4.462;2024-02-21T11:51:42;10.90;99.90
12833;DHT22;6483;51.310;4.462;2024-02-21T11:54:08;10.80;99.90
12833;DHT22;6483;51.310;4.462;2024-02-21T11:56:35;10.70;99.90
12833;DHT22;6483;51.310;4.462;2024-02-21T11:59:00;10.60;99.90
12833;DHT22;6483;51.310;4.462;2024-02-21T12:01:26;10.50;99.90
12833;DHT22;6483;51.310;4.462;2024-02-21T12:03:53;10.50;99.90
12833;DHT22;6483;51.310;4.462;2024-02-21T12:06:19;10.70;99.90
12833;DHT22;6483;51.310;4.462;2024-02-21T12:08:46;10.80;99.90
12833;DHT22;6483;51.310;4.462;2024-02-21T12:11:17;10.80;99.90
12833;DHT22;6483;51.310;4.462;2024-02-21T12:13:43;10.90;99.90
12833;DHT22;6483;51.310;4.462;2024-02-21T12:16:09;10.90;99.90
12833;DHT22;6483;51.310;4.462;2024-02-21T12:18:38;10.90;99.90
12833;DHT22;6483;51.310;4.462;2024-02-21T12:21:10;10.80;99.90
12833;DHT22;6483;51.310;4.462;2024-02-21T12:23:38;10.70;99.90
12833;DHT22;6483;51.310;4.462;2024-02-21T12:26:05;10.60;99.90
12833;DHT22;6483;51.310;4.462;2024-02-21T12:28:33;10.60;99.90
12833;DHT22;6483;51.310;4.462;2024-02-21T12:30:59;10.60;99.90
12833;DHT22;6483;51.310;4.462;2024-02-21T12:33:25;10.60;99.90
12833;DHT22;6483;51.310;4.462;2024-02-21T12:35:51;10.70;99.90
12833;DHT22;6483;51.310;4.462;2024-02-21T12:40:52;10.70;99.90
12833;DHT22;6483;51.310;4.462;2024-02-21T12:43:22;10.70;99.90
12833;DHT22;6483;51.310;4.462;2024-02-21T12:48:17;10.80;99.90
12833;DHT22;6483;51.310;4.462;2024-02-21T12:50:50;10.70;99.90
12833;DHT22;6483;51.310;4.462;2024-02-21T12:53:19;10.70;99.90
12833;DHT22;6483;51.310;4.462;2024-02-21T12:55:48;10.70;99.90
12833;DHT22;6483;51.310;4.462;2024-02-21T12:58:21;10.80;99.90
12833;DHT22;6483;51.310;4.462;2024-02-21T13:00:52;10.90;99.90
12833;DHT22;6483;51.310;4.462;2024-02-21T13:03:18;11.10;99.90
12833;DHT22;6483;51.310;4.462;2024-02-21T13:05:44;11.00;99.90
12833;DHT22;6483;51.310;4.462;2024-02-21T13:08:10;11.00;99.90
12833;DHT22;6483;51.310;4.462;2024-02-21T13:10:40;10.90;99.90
12833;DHT22;6483;51.310;4.462;2024-02-21T13:13:08;10.80;99.90
12833;DHT22;6483;51.310;4.462;2024-02-21T13:15:34;10.80;99.90
12833;DHT22;6483;51.310;4.462;2024-02-21T13:18:00;10.80;99.90
12833;DHT22;6483;51.310;4.462;2024-02-21T13:20:26;10.80;99.90
12833;DHT22;6483;51.310;4.462;2024-02-21T13:22:56;10.90;99.90
12833;DHT22;6483;51.310;4.462;2024-02-21T13:25:22;10.90;99.90
12833;DHT22;6483;51.310;4.462;2024-02-21T13:27:48;11.00;99.90
12833;DHT22;6483;51.310;4.462;2024-02-21T13:30:14;11.00;99.90
12833;DHT22;6483;51.310;4.462;2024-02-21T13:32:44;10.90;99.90
12833;DHT22;6483;51.310;4.462;2024-02-21T13:35:15;11.00;99.90
12833;DHT22;6483;51.310;4.462;2024-02-21T13:37:41;10.90;99.90
12833;DHT22;6483;51.310;4.462;2024-02-21T13:40:09;10.90;99.90
12833;DHT22;6483;51.310;4.462;2024-02-21T13:42:36;10.90;99.90
12833;DHT22;6483;51.310;4.462;2024-02-21T13:45:06;10.90;99.90
12833;DHT22;6483;51.310;4.462;2024-02-21T13:47:38;10.90;99.90
12833;DHT22;6483;51.310;4.462;2024-02-21T13:50:09;10.70;99.90
12833;DHT22;6483;51.310;4.462;2024-02-21T13:52:38;10.60;99.90
12833;DHT22;6483;51.310;4.462;2024-02-21T13:55:04;10.60;99.90
12833;DHT22;6483;51.310;4.462;2024-02-21T13:57:33;10.50;99.90
12833;DHT22;6483;51.310;4.462;2024-02-21T14:00:06;10.40;99.90
12833;DHT22;6483;51.310;4.462;2024-02-21T14:02:36;10.40;99.90
12833;DHT22;6483;51.310;4.462;2024-02-21T14:05:04;10.30;99.90
12833;DHT22;6483;51.310;4.462;2024-02-21T14:07:33;10.30;99.90
12833;DHT22;6483;51.310;4.462;2024-02-21T14:09:59;10.20;99.90
12833;DHT22;6483;51.310;4.462;2024-02-21T14:12:25;10.10;99.90
12833;DHT22;6483;51.310;4.462;2024-02-21T14:14:54;10.10;99.90
12833;DHT22;6483;51.310;4.462;2024-02-21T14:17:24;10.00;99.90
12833;DHT22;6483;51.310;4.462;2024-02-21T14:19:50;10.00;99.90
12833;DHT22;6483;51.310;4.462;2024-02-21T14:22:20;10.00;99.90
12833;DHT22;6483;51.310;4.462;2024-02-21T14:24:45;9.90;99.90
12833;DHT22;6483;51.310;4.462;2024-02-21T14:27:15;9.80;99.90
12833;DHT22;6483;51.310;4.462;2024-02-21T14:29:41;9.80;99.90
12833;DHT22;6483;51.310;4.462;2024-02-21T14:32:10;9.70;99.90
12833;DHT22;6483;51.310;4.462;2024-02-21T14:34:38;9.70;99.90
12833;DHT22;6483;51.310;4.462;2024-02-21T14:37:04;9.70;99.90
12833;DHT22;6483;51.310;4.462;2024-02-21T14:39:30;9.70;99.90
12833;DHT22;6483;51.310;4.462;2024-02-21T14:41:58;9.60;99.90
12833;DHT22;6483;51.310;4.462;2024-02-21T14:44:25;9.60;99.90
12833;DHT22;6483;51.310;4.462;2024-02-21T14:46:51;9.50;99.90
12833;DHT22;6483;51.310;4.462;2024-02-21T14:49:17;9.50;99.90
12833;DHT22;6483;51.310;4.462;2024-02-21T14:51:44;9.50;99.90
12833;DHT22;6483;51.310;4.462;2024-02-21T14:54:16;9.50;99.90
12833;DHT22;6483;51.310;4.462;2024-02-21T14:56:42;9.50;99.90
12833;DHT22;6483;51.310;4.462;2024-02-21T14:59:09;9.50;99.90
12833;DHT22;6483;51.310;4.462;2024-02-21T15:01:38;9.40;99.90
12833;DHT22;6483;51.310;4.462;2024-02-21T15:04:07;9.40;99.90
12833;DHT22;6483;51.310;4.462;2024-02-21T15:06:37;9.40;99.90
12833;DHT22;6483;51.310;4.462;2024-02-21T15:09:05;9.40;99.90
12833;DHT22;6483;51.310;4.462;2024-02-21T15:11:32;9.30;99.90
12833;DHT22;6483;51.310;4.462;2024-02-21T15:14:01;9.30;99.90
12833;DHT22;6483;51.310;4.462;2024-02-21T15:16:27;9.30;99.90
12833;DHT22;6483;51.310;4.462;2024-02-21T15:18:55;9.30;99.90
12833;DHT22;6483;51.310;4.462;2024-02-21T15:21:21;9.30;99.90
12833;DHT22;6483;51.310;4.462;2024-02-21T15:23:46;9.20;99.90
12833;DHT22;6483;51.310;4.462;2024-02-21T15:26:12;9.20;99.90
12833;DHT22;6483;51.310;4.462;2024-02-21T15:28:39;9.20;99.90
12833;DHT22;6483;51.310;4.462;2024-02-21T15:31:05;9.20;99.90
12833;DHT22;6483;51.310;4.462;2024-02-21T15:33:34;9.20;99.90
12833;DHT22;6483;51.310;4.462;2024-02-21T15:36:00;9.20;99.90
12833;DHT22;6483;51.310;4.462;2024-02-21T15:38:27;9.10;99.90
12833;DHT22;6483;51.310;4.462;2024-02-21T15:40:54;9.20;99.90
12833;DHT22;6483;51.310;4.462;2024-02-21T15:43:19;9.20;99.90
12833;DHT22;6483;51.310;4.462;2024-02-21T15:45:45;9.20;99.90
12833;DHT22;6483;51.310;4.462;2024-02-21T15:48:16;9.10;99.90
12833;DHT22;6483;51.310;4.462;2024-02-21T15:50:42;9.20;99.90
12833;DHT22;6483;51.310;4.462;2024-02-21T15:53:08;9.20;99.90
12833;DHT22;6483;51.310;4.462;2024-02-21T15:55:36;9.20;99.90
12833;DHT22;6483;51.310;4.462;2024-02-21T15:58:02;9.20;99.90
12833;DHT22;6483;51.310;4.462;2024-02-21T16:00:34;9.20;99.90
12833;DHT22;6483;51.310;4.462;2024-02-21T16:03:00;9.20;99.90
12833;DHT22;6483;51.310;4.462;2024-02-21T16:05:26;9.10;99.90
12833;DHT22;6483;51.310;4.462;2024-02-21T16:07:53;9.20;99.90
12833;DHT22;6483;51.310;4.462;2024-02-21T16:10:18;9.10;99.90
12833;DHT22;6483;51.310;4.462;2024-02-21T16:12:44;9.10;99.90
12833;DHT22;6483;51.310;4.462;2024-02-21T16:15:10;9.10;99.90
12833;DHT22;6483;51.310;4.462;2024-02-21T16:17:38;9.10;99.90
12833;DHT22;6483;51.310;4.462;2024-02-21T16:20:05;9.20;99.90
12833;DHT22;6483;51.310;4.462;2024-02-21T16:22:36;9.20;99.90
12833;DHT22;6483;51.310;4.462;2024-02-21T16:27:39;9.10;99.90
12833;DHT22;6483;51.310;4.462;2024-02-21T16:30:09;9.10;99.90
12833;DHT22;6483;51.310;4.462;2024-02-21T16:32:35;9.10;99.90
12833;DHT22;6483;51.310;4.462;2024-02-21T16:35:06;9.10;99.90